METAR Podaci o vazduhoplovstvu     LIEE Cagliari Elmas Airport
Temperatura
15°C Temperatura
13°C Tačka Rose
88% Vlaga



Vetar
14 KM/S
9 MPS
4 M/S
8 Čvorovi



130°
JI
Trenutna situacija

Delimično oblačno Delimično oblačno
Vazdušni pritisak 1008.92 (hPa) - 29.79 (inHg)
Vidljivost 6.2 (Milje) - 10 (km)
Aerodrom
Aerodromski kod. LIEE

Lokacija: Cagliari Elmas Airport
Udaljenost: 14 (km)

Metar:
LIEE 082150Z 13008KT 9999 FEW012 15/13 Q1009

Vreme: 08-12-2022 22:50 CET